createdAt,value
2018-06-27T00:00:21.001Z,5.30
2018-06-27T00:02:49.847Z,7.37
2018-06-27T00:05:18.693Z,4.20
2018-06-27T00:07:47.511Z,2.93
2018-06-27T00:10:16.338Z,11.28
2018-06-27T00:12:45.191Z,7.77
2018-06-27T00:15:14.041Z,8.37
2018-06-27T00:17:42.970Z,5.93
2018-06-27T00:20:11.741Z,4.87
2018-06-27T00:22:40.606Z,7.37
2018-06-27T00:25:09.434Z,4.50
2018-06-27T00:27:38.264Z,4.63
2018-06-27T00:30:07.082Z,6.10
2018-06-27T00:32:35.926Z,4.93
2018-06-27T00:35:04.922Z,5.07
2018-06-27T00:37:33.748Z,6.13
2018-06-27T00:40:02.559Z,6.03
2018-06-27T00:42:31.425Z,6.30
2018-06-27T00:45:00.253Z,5.13
2018-06-27T00:47:29.115Z,9.33
2018-06-27T00:49:57.930Z,4.47
2018-06-27T00:52:26.846Z,5.57
2018-06-27T00:54:55.647Z,7.60
2018-06-27T00:57:24.485Z,5.07
2018-06-27T00:59:53.350Z,7.13
2018-06-27T01:02:23.363Z,8.53
2018-06-27T01:04:52.399Z,3.63
2018-06-27T01:07:21.274Z,6.33
2018-06-27T01:09:50.156Z,4.20
2018-06-27T01:12:18.996Z,5.03
2018-06-27T01:14:47.796Z,8.53
2018-06-27T01:17:16.621Z,3.53
2018-06-27T01:19:45.459Z,10.30
2018-06-27T01:22:14.297Z,4.73
2018-06-27T01:24:43.112Z,3.63
2018-06-27T01:27:11.955Z,4.73
2018-06-27T01:29:40.810Z,5.10
2018-06-27T01:32:09.659Z,4.33
2018-06-27T01:34:38.570Z,5.57
2018-06-27T01:37:07.154Z,8.60
2018-06-27T01:39:36.088Z,8.07
2018-06-27T01:42:04.931Z,5.17
2018-06-27T01:44:33.788Z,5.60
2018-06-27T01:47:02.638Z,4.67
2018-06-27T01:49:31.464Z,4.13
2018-06-27T01:52:00.325Z,6.87
2018-06-27T01:54:29.163Z,5.30
2018-06-27T01:56:57.991Z,6.07
2018-06-27T01:59:26.846Z,8.73
2018-06-27T02:01:55.667Z,5.15
2018-06-27T02:04:24.487Z,7.00
2018-06-27T02:06:53.369Z,3.60
2018-06-27T02:09:22.246Z,10.33
2018-06-27T02:11:51.126Z,5.87
2018-06-27T02:14:19.957Z,6.53
2018-06-27T02:16:48.811Z,2.80
2018-06-27T02:19:17.749Z,6.45
2018-06-27T02:21:46.595Z,4.07
2018-06-27T02:24:15.453Z,10.03
2018-06-27T02:26:44.310Z,3.37
2018-06-27T02:29:13.156Z,7.90
2018-06-27T02:31:41.984Z,8.37
2018-06-27T02:34:10.835Z,6.87
2018-06-27T02:36:39.720Z,6.00
2018-06-27T02:39:09.591Z,5.50
2018-06-27T02:41:42.458Z,5.35
2018-06-27T02:44:11.470Z,8.03
2018-06-27T02:46:40.239Z,5.20
2018-06-27T02:49:09.077Z,6.35
2018-06-27T02:51:41.514Z,8.37
2018-06-27T02:54:10.349Z,5.08
2018-06-27T02:56:39.200Z,5.57
2018-06-27T02:59:08.038Z,5.70
2018-06-27T03:01:38.404Z,6.27
2018-06-27T03:04:07.248Z,10.70
2018-06-27T03:06:36.059Z,6.23
2018-06-27T03:09:07.020Z,8.33
2018-06-27T03:11:35.863Z,7.90
2018-06-27T03:14:04.709Z,6.40
2018-06-27T03:16:33.531Z,7.80
2018-06-27T03:19:02.374Z,5.13
2018-06-27T03:21:31.216Z,12.90
2018-06-27T03:24:01.514Z,9.80
2018-06-27T03:26:30.394Z,4.90
2018-06-27T03:28:58.974Z,7.30
2018-06-27T03:31:27.743Z,5.27
2018-06-27T03:33:56.611Z,10.83
2018-06-27T03:36:25.452Z,6.67
2018-06-27T03:38:54.318Z,6.77
2018-06-27T03:41:23.143Z,6.50
2018-06-27T03:43:51.746Z,5.40
2018-06-27T03:46:20.567Z,5.83
2018-06-27T03:48:49.449Z,6.53
2018-06-27T03:51:18.307Z,7.65
2018-06-27T03:53:52.547Z,8.67
2018-06-27T03:56:21.495Z,11.10
2018-06-27T03:58:50.298Z,8.10
2018-06-27T04:01:19.108Z,8.97
2018-06-27T04:03:47.989Z,6.20
2018-06-27T04:06:16.836Z,6.03
2018-06-27T04:08:45.700Z,16.13
2018-06-27T04:11:14.599Z,8.93
2018-06-27T04:13:43.404Z,4.93
2018-06-27T04:16:12.257Z,9.30
2018-06-27T04:18:41.175Z,7.10
2018-06-27T04:21:10.042Z,3.70
2018-06-27T04:23:40.407Z,15.00
2018-06-27T04:26:09.465Z,8.47
2018-06-27T04:28:38.431Z,7.77
2018-06-27T04:31:07.447Z,12.23
2018-06-27T04:33:39.620Z,12.03
2018-06-27T04:36:08.575Z,5.93
2018-06-27T04:38:37.344Z,6.67
2018-06-27T04:41:06.254Z,5.97
2018-06-27T04:43:35.360Z,10.70
2018-06-27T04:46:04.668Z,9.80
2018-06-27T04:48:33.523Z,11.87
2018-06-27T04:51:02.348Z,17.77
2018-06-27T04:53:31.191Z,9.30
2018-06-27T04:56:00.074Z,10.83
2018-06-27T04:58:28.943Z,12.10
2018-06-27T05:00:57.768Z,6.97
2018-06-27T05:03:26.630Z,15.80
2018-06-27T05:05:55.483Z,5.10
2018-06-27T05:08:24.083Z,8.47
2018-06-27T05:10:52.866Z,18.87
2018-06-27T05:13:21.759Z,9.23
2018-06-27T05:15:50.381Z,7.33
2018-06-27T05:18:19.282Z,19.07
2018-06-27T05:20:48.298Z,10.80
2018-06-27T05:23:17.132Z,17.23
2018-06-27T05:25:45.958Z,10.87
2018-06-27T05:28:14.883Z,10.60
2018-06-27T05:30:44.115Z,22.13
2018-06-27T05:33:12.942Z,13.48
2018-06-27T05:35:41.787Z,10.97
2018-06-27T05:38:10.676Z,17.77
2018-06-27T05:40:39.501Z,12.80
2018-06-27T05:43:08.369Z,11.37
2018-06-27T05:45:37.384Z,12.87
2018-06-27T05:48:06.213Z,9.43
2018-06-27T05:50:35.086Z,8.77
2018-06-27T05:53:05.177Z,6.87
2018-06-27T05:55:34.678Z,11.67
2018-06-27T05:58:03.803Z,8.77
2018-06-27T06:00:32.666Z,9.77
2018-06-27T06:03:01.505Z,9.35
2018-06-27T06:05:30.911Z,6.00
2018-06-27T06:07:59.748Z,16.43
2018-06-27T06:10:28.640Z,17.87
2018-06-27T06:12:57.557Z,14.80
2018-06-27T06:15:26.381Z,23.53
2018-06-27T06:17:55.056Z,14.93
2018-06-27T06:20:23.760Z,15.30
2018-06-27T06:22:52.473Z,24.47
2018-06-27T06:25:21.421Z,16.23
2018-06-27T06:27:50.252Z,14.43
2018-06-27T06:30:19.149Z,17.23
2018-06-27T06:32:48.022Z,14.33
2018-06-27T06:35:16.985Z,13.00
2018-06-27T06:37:45.875Z,15.30
2018-06-27T06:40:14.793Z,8.40
2018-06-27T06:42:43.623Z,13.03
2018-06-27T06:45:12.436Z,15.77
2018-06-27T06:47:41.308Z,17.07
2018-06-27T06:50:10.235Z,18.93
2018-06-27T06:52:39.086Z,15.97
2018-06-27T06:55:08.279Z,13.33
2018-06-27T06:57:37.140Z,13.77
2018-06-27T07:00:06.265Z,13.90
2018-06-27T07:02:35.197Z,10.77
2018-06-27T07:05:04.195Z,15.47
2018-06-27T07:07:32.984Z,10.20
2018-06-27T07:10:01.843Z,16.60
2018-06-27T07:13:33.705Z,24.93
2018-06-27T07:16:02.561Z,14.90
2018-06-27T07:18:31.482Z,15.80
2018-06-27T07:21:00.305Z,12.73
2018-06-27T07:23:29.526Z,18.93
2018-06-27T07:25:58.304Z,15.33
2018-06-27T07:28:27.217Z,15.97
2018-06-27T07:30:55.975Z,10.97
2018-06-27T07:33:24.808Z,18.77
2018-06-27T07:35:53.726Z,13.77
2018-06-27T07:38:22.485Z,15.97
2018-06-27T07:40:51.322Z,19.40
2018-06-27T07:43:20.178Z,14.87
2018-06-27T07:45:49.070Z,14.30
2018-06-27T07:48:17.956Z,17.43
2018-06-27T07:50:46.819Z,17.07
2018-06-27T07:53:15.656Z,12.80
2018-06-27T07:55:44.678Z,14.33
2018-06-27T07:58:13.659Z,11.63
2018-06-27T08:00:43.525Z,10.50
2018-06-27T08:03:12.385Z,11.35
2018-06-27T08:05:41.213Z,6.67
2018-06-27T08:08:10.066Z,22.03
2018-06-27T08:10:38.963Z,9.13
2018-06-27T08:13:07.831Z,15.63
2018-06-27T08:15:36.771Z,13.97
2018-06-27T08:18:05.803Z,16.07
2018-06-27T08:20:34.501Z,13.53
2018-06-27T08:23:03.325Z,8.53
2018-06-27T08:25:32.247Z,9.13
2018-06-27T08:28:01.133Z,10.93
2018-06-27T08:30:30.051Z,8.63
2018-06-27T08:32:58.863Z,9.73
2018-06-27T08:35:27.728Z,12.10
2018-06-27T08:37:56.612Z,22.40
2018-06-27T08:40:25.493Z,21.48
2018-06-27T08:42:54.353Z,17.33
2018-06-27T08:45:23.227Z,15.78
2018-06-27T08:47:52.054Z,9.97
2018-06-27T08:50:20.879Z,16.13
2018-06-27T08:52:50.666Z,17.03
2018-06-27T08:55:19.543Z,12.10
2018-06-27T08:57:48.385Z,11.73
2018-06-27T09:00:17.615Z,14.17
2018-06-27T09:02:46.742Z,10.60
2018-06-27T09:05:15.877Z,10.03
2018-06-27T09:07:44.724Z,18.03
2018-06-27T09:10:13.601Z,10.83
2018-06-27T09:12:42.495Z,13.30
2018-06-27T09:15:11.343Z,11.47
2018-06-27T09:17:40.202Z,13.63
2018-06-27T09:20:09.117Z,9.90
2018-06-27T09:22:37.904Z,16.70
2018-06-27T09:25:06.794Z,12.33
2018-06-27T09:27:35.685Z,10.73
2018-06-27T09:30:04.855Z,12.00
2018-06-27T09:32:37.423Z,9.53
2018-06-27T09:35:06.295Z,12.67
2018-06-27T09:38:15.732Z,15.77
2018-06-27T09:40:44.819Z,11.87
2018-06-27T09:43:13.978Z,17.03
2018-06-27T09:45:43.121Z,14.37
2018-06-27T09:48:12.323Z,17.77
2018-06-27T09:50:41.129Z,15.37
2018-06-27T09:53:09.982Z,22.43
2018-06-27T09:55:38.857Z,10.63
2018-06-27T09:58:07.761Z,10.40
2018-06-27T10:00:39.098Z,10.67
2018-06-27T10:03:09.151Z,19.77
2018-06-27T10:05:38.330Z,16.83
2018-06-27T10:08:07.737Z,17.80
2018-06-27T10:10:36.901Z,9.40
2018-06-27T10:13:05.792Z,17.87
2018-06-27T10:15:34.666Z,9.73
2018-06-27T10:18:03.498Z,16.17
2018-06-27T10:20:32.824Z,19.37
2018-06-27T10:23:01.694Z,15.43
2018-06-27T10:25:30.585Z,17.93
2018-06-27T10:27:59.577Z,13.47
2018-06-27T10:30:28.526Z,12.87
2018-06-27T10:32:57.593Z,14.70
2018-06-27T10:35:26.508Z,11.50
2018-06-27T10:37:55.951Z,9.83
2018-06-27T10:40:24.952Z,8.48
2018-06-27T10:42:53.946Z,12.23
2018-06-27T10:45:22.865Z,14.90
2018-06-27T10:47:51.797Z,8.50
2018-06-27T10:50:20.683Z,15.27
2018-06-27T10:52:49.537Z,15.27
2018-06-27T10:55:19.882Z,11.27
2018-06-27T10:57:48.851Z,9.67
2018-06-27T11:00:17.825Z,12.93
2018-06-27T11:02:46.759Z,14.10
2018-06-27T11:05:15.739Z,10.67
2018-06-27T11:07:44.581Z,9.53
2018-06-27T11:10:13.447Z,12.07
2018-06-27T11:12:42.424Z,14.17
2018-06-27T11:15:11.286Z,8.33
2018-06-27T11:17:43.180Z,14.23
2018-06-27T11:20:12.058Z,11.03
2018-06-27T11:22:41.000Z,16.47
2018-06-27T11:25:09.911Z,14.20
2018-06-27T11:27:38.796Z,21.67
2018-06-27T11:30:07.655Z,15.83
2018-06-27T11:32:36.537Z,13.50
2018-06-27T11:35:05.372Z,19.50
2018-06-27T11:37:34.267Z,15.53
2018-06-27T11:40:03.078Z,19.73
2018-06-27T11:42:31.961Z,13.03
2018-06-27T11:45:00.789Z,20.37
2018-06-27T11:47:29.652Z,19.77
2018-06-27T11:49:58.531Z,12.17
2018-06-27T11:52:27.393Z,11.33
2018-06-27T11:55:01.451Z,12.90
2018-06-27T11:57:30.201Z,14.17
2018-06-27T11:59:59.108Z,14.50
2018-06-27T12:02:27.934Z,11.70
2018-06-27T12:04:56.760Z,14.03
2018-06-27T12:07:26.473Z,12.77
2018-06-27T12:09:55.465Z,14.60
2018-06-27T12:12:24.324Z,17.37
2018-06-27T12:14:53.238Z,17.13
2018-06-27T12:17:22.182Z,15.45
2018-06-27T12:19:51.007Z,15.43
2018-06-27T12:22:19.856Z,14.50
2018-06-27T12:24:48.741Z,12.40
2018-06-27T12:27:17.757Z,17.32
2018-06-27T12:29:46.568Z,9.70
2018-06-27T12:32:15.429Z,10.03
2018-06-27T12:34:44.291Z,18.03
2018-06-27T12:37:13.158Z,12.80
2018-06-27T12:39:42.052Z,14.70
2018-06-27T12:42:11.017Z,12.77
2018-06-27T12:44:39.624Z,12.05
2018-06-27T12:47:08.429Z,9.50
2018-06-27T12:49:37.282Z,12.37
2018-06-27T12:52:06.193Z,14.10
2018-06-27T12:54:35.065Z,12.63
2018-06-27T12:57:04.884Z,14.05
2018-06-27T12:59:33.764Z,15.83
2018-06-27T13:02:02.690Z,19.40
2018-06-27T13:04:31.596Z,19.98
2018-06-27T13:07:00.501Z,16.57
2018-06-27T13:09:29.349Z,11.93
2018-06-27T13:11:58.221Z,12.10
2018-06-27T13:14:27.144Z,12.43
2018-06-27T13:16:55.987Z,12.87
2018-06-27T13:19:24.844Z,11.00
2018-06-27T13:21:53.774Z,11.33
2018-06-27T13:24:22.603Z,12.00
2018-06-27T13:26:51.481Z,16.10
2018-06-27T13:29:20.320Z,11.03
2018-06-27T13:31:49.195Z,17.50
2018-06-27T13:34:18.035Z,14.47
2018-06-27T13:36:47.489Z,9.73
2018-06-27T13:39:16.360Z,8.50
2018-06-27T13:41:45.727Z,13.43
2018-06-27T13:44:14.644Z,16.43
2018-06-27T13:46:43.496Z,21.10
2018-06-27T13:49:12.751Z,12.17
2018-06-27T13:51:41.641Z,15.73
2018-06-27T13:54:10.513Z,8.90
2018-06-27T13:56:39.344Z,10.30
2018-06-27T13:59:08.225Z,10.13
2018-06-27T14:01:37.084Z,16.83
2018-06-27T14:04:05.938Z,17.63
2018-06-27T14:06:34.825Z,8.20
2018-06-27T14:09:07.144Z,11.80
2018-06-27T14:11:35.983Z,12.43
2018-06-27T14:14:05.149Z,115.90
2018-06-27T14:16:34.017Z,33.73
2018-06-27T16:07:14.735Z,11.70
2018-06-27T16:13:18.607Z,3.07
2018-06-27T16:15:47.966Z,11.07
2018-06-27T16:18:32.469Z,3.83
2018-06-27T16:21:01.822Z,7.87
2018-06-27T16:23:35.148Z,13.97
2018-06-27T16:26:22.933Z,9.28
2018-06-27T16:29:18.225Z,8.40
2018-06-27T16:32:47.762Z,5.20
2018-06-27T16:36:37.635Z,5.45
2018-06-27T16:42:49.010Z,8.27
2018-06-27T16:47:32.059Z,3.10
2018-06-27T16:51:30.119Z,4.20
2018-06-27T16:54:44.255Z,5.27
2018-06-27T16:57:17.613Z,7.50
2018-06-27T16:59:49.764Z,6.20
2018-06-27T17:03:16.546Z,5.15
2018-06-27T17:06:32.101Z,9.03
2018-06-27T17:09:10.139Z,4.07
2018-06-27T17:14:41.993Z,5.23
2018-06-27T17:17:13.755Z,6.57
2018-06-27T17:22:29.816Z,3.90
2018-06-27T17:25:44.281Z,4.80
2018-06-27T17:42:24.131Z,6.73
2018-06-27T17:44:53.902Z,8.97
2018-06-27T17:47:22.807Z,6.60
2018-06-27T17:49:53.037Z,3.93
2018-06-27T17:52:21.962Z,6.53
2018-06-27T17:54:51.084Z,7.73
2018-06-27T17:57:21.799Z,4.30
2018-06-27T17:59:50.690Z,5.90
2018-06-27T18:02:20.397Z,6.00
2018-06-27T18:04:49.484Z,4.67
2018-06-27T18:07:18.982Z,4.80
2018-06-27T18:09:47.742Z,4.50
2018-06-27T18:12:28.466Z,8.58
2018-06-27T18:14:57.611Z,5.93
2018-06-27T18:17:26.544Z,4.73
2018-06-27T18:19:58.437Z,5.47
2018-06-27T18:22:27.301Z,5.87
2018-06-27T18:24:57.587Z,333.07
2018-06-27T18:27:27.695Z,236.73
2018-06-27T18:29:57.318Z,176.30
2018-06-27T18:32:26.448Z,136.13
2018-06-27T18:34:55.370Z,146.57
2018-06-27T18:37:24.319Z,110.97
2018-06-27T18:39:53.262Z,69.50
2018-06-27T18:42:22.257Z,76.10
2018-06-27T18:44:51.208Z,88.37
2018-06-27T18:47:20.139Z,80.50
2018-06-27T18:49:49.106Z,24.03
2018-06-27T18:52:18.014Z,45.20
2018-06-27T18:54:46.992Z,42.70
2018-06-27T18:57:15.981Z,38.55
2018-06-27T18:59:44.972Z,30.63
2018-06-27T19:02:13.852Z,33.47
2018-06-27T19:04:42.762Z,31.53
2018-06-27T19:07:11.648Z,22.90
2018-06-27T19:09:40.646Z,19.37
2018-06-27T19:12:09.830Z,23.27
2018-06-27T19:14:39.293Z,18.80
2018-06-27T19:17:08.419Z,21.40
2018-06-27T19:19:37.558Z,22.40
2018-06-27T19:22:06.485Z,16.07
2018-06-27T19:24:35.148Z,16.23
2018-06-27T19:27:04.529Z,18.97
2018-06-27T19:29:33.404Z,12.57
2018-06-27T19:32:02.373Z,10.57
2018-06-27T19:34:31.270Z,12.03
2018-06-27T19:37:00.137Z,14.27
2018-06-27T19:39:37.454Z,11.30
2018-06-27T19:45:20.800Z,12.33
2018-06-27T19:47:49.819Z,10.63
2018-06-27T19:50:18.668Z,7.80
2018-06-27T19:52:47.715Z,10.03
2018-06-27T19:55:16.568Z,10.70
2018-06-27T19:57:45.498Z,7.93
2018-06-27T20:00:14.592Z,7.23
2018-06-27T20:02:43.547Z,8.07
2018-06-27T20:05:12.398Z,7.97
2018-06-27T20:07:41.417Z,7.73
2018-06-27T20:10:10.091Z,5.70
2018-06-27T20:12:38.799Z,6.20
2018-06-27T20:15:07.938Z,11.60
2018-06-27T20:17:36.739Z,6.40
2018-06-27T20:20:06.715Z,7.17
2018-06-27T20:22:35.615Z,4.63
2018-06-27T20:25:05.109Z,7.20
2018-06-27T20:27:34.057Z,7.20
2018-06-27T20:30:03.064Z,5.20
2018-06-27T20:32:31.978Z,8.50
2018-06-27T20:35:00.868Z,6.90
2018-06-27T20:37:29.884Z,5.33
2018-06-27T20:39:58.915Z,6.57
2018-06-27T20:42:27.818Z,7.03
2018-06-27T20:44:56.711Z,7.10
2018-06-27T20:47:25.651Z,13.07
2018-06-27T20:49:54.645Z,5.37
2018-06-27T20:52:23.587Z,5.83
2018-06-27T20:54:52.622Z,4.77
2018-06-27T20:57:21.529Z,9.80
2018-06-27T20:59:50.554Z,3.90
2018-06-27T21:02:19.472Z,4.13
2018-06-27T21:04:48.372Z,6.87
2018-06-27T21:07:17.269Z,7.75
2018-06-27T21:09:46.142Z,6.80
2018-06-27T21:12:15.034Z,7.97
2018-06-27T21:14:45.106Z,8.43
2018-06-27T21:17:13.852Z,7.17
2018-06-27T21:19:42.717Z,5.60
2018-06-27T21:22:11.577Z,7.83
2018-06-27T21:24:40.418Z,4.97
2018-06-27T21:27:09.376Z,4.60
2018-06-27T21:29:40.047Z,4.70
2018-06-27T21:32:09.602Z,13.17
2018-06-27T21:34:38.488Z,5.57
2018-06-27T21:37:07.122Z,6.93
2018-06-27T21:39:39.933Z,5.50
2018-06-27T21:42:09.068Z,7.97
2018-06-27T21:44:37.989Z,10.73
2018-06-27T21:47:06.925Z,4.20
2018-06-27T21:49:35.893Z,4.17
2018-06-27T21:52:04.799Z,9.57
2018-06-27T21:54:33.722Z,6.83
2018-06-27T21:57:02.595Z,7.10
2018-06-27T21:59:31.559Z,13.03
2018-06-27T22:02:00.431Z,8.57
2018-06-27T22:04:29.275Z,7.37
2018-06-27T22:06:58.205Z,7.20
2018-06-27T22:09:27.201Z,10.67
2018-06-27T22:11:56.124Z,7.90
2018-06-27T22:14:24.996Z,6.40
2018-06-27T22:16:53.864Z,5.27
2018-06-27T22:19:22.729Z,10.33
2018-06-27T22:21:51.586Z,8.40
2018-06-27T22:24:20.462Z,8.17
2018-06-27T22:26:49.418Z,11.20
2018-06-27T22:29:18.375Z,7.00
2018-06-27T22:31:47.251Z,6.47
2018-06-27T22:34:17.634Z,7.63
2018-06-27T22:36:46.515Z,11.23
2018-06-27T22:39:15.395Z,6.73
2018-06-27T22:41:43.979Z,9.83
2018-06-27T22:44:12.797Z,6.10
2018-06-27T22:46:41.698Z,8.10
2018-06-27T22:49:10.661Z,5.63
2018-06-27T22:51:39.562Z,8.97
2018-06-27T22:54:08.487Z,11.30
2018-06-27T22:56:37.352Z,6.97
2018-06-27T22:59:06.198Z,8.00
2018-06-27T23:01:35.045Z,7.53
2018-06-27T23:04:03.951Z,11.27
2018-06-27T23:06:32.860Z,13.13
2018-06-27T23:09:01.819Z,9.03
2018-06-27T23:11:30.724Z,11.27
2018-06-27T23:13:59.691Z,7.93
2018-06-27T23:16:28.616Z,5.23
2018-06-27T23:18:57.512Z,13.93
2018-06-27T23:21:26.409Z,7.27
2018-06-27T23:23:55.976Z,9.37
2018-06-27T23:26:24.665Z,12.50
2018-06-27T23:28:53.496Z,7.83
2018-06-27T23:31:22.429Z,13.87
2018-06-27T23:33:51.397Z,11.53
2018-06-27T23:36:20.039Z,9.83
2018-06-27T23:38:48.812Z,8.40
2018-06-27T23:41:17.658Z,13.70
2018-06-27T23:43:46.522Z,9.93
2018-06-27T23:46:15.432Z,6.33
2018-06-27T23:48:44.361Z,11.43
2018-06-27T23:51:13.275Z,8.47
2018-06-27T23:53:42.201Z,12.27
2018-06-27T23:56:11.150Z,10.77
2018-06-27T23:58:40.058Z,11.00
